createdAt,value
2017-06-26T00:01:51.574Z,99.90
2017-06-26T00:04:19.844Z,99.90
2017-06-26T00:06:48.224Z,99.90
2017-06-26T00:09:16.573Z,99.90
2017-06-26T00:11:44.947Z,99.90
2017-06-26T00:14:13.211Z,99.90
2017-06-26T00:16:41.496Z,99.90
2017-06-26T00:19:09.778Z,99.90
2017-06-26T00:21:38.130Z,99.90
2017-06-26T00:24:06.387Z,99.90
2017-06-26T00:26:34.731Z,99.90
2017-06-26T00:29:03.094Z,99.90
2017-06-26T00:31:31.379Z,99.90
2017-06-26T00:33:59.765Z,99.90
2017-06-26T00:36:28.023Z,99.90
2017-06-26T00:38:56.427Z,99.90
2017-06-26T00:41:24.674Z,99.90
2017-06-26T00:43:52.998Z,99.90
2017-06-26T00:46:22.010Z,99.90
2017-06-26T00:48:50.326Z,99.90
2017-06-26T00:51:18.600Z,99.90
2017-06-26T00:53:46.867Z,99.90
2017-06-26T00:56:15.165Z,99.90
2017-06-26T00:58:43.435Z,99.90
2017-06-26T01:01:11.741Z,99.90
2017-06-26T01:03:39.986Z,99.90
2017-06-26T01:06:09.130Z,99.90
2017-06-26T01:08:37.424Z,99.90
2017-06-26T01:11:05.702Z,99.90
2017-06-26T01:13:33.964Z,99.90
2017-06-26T01:16:02.225Z,99.90
2017-06-26T01:18:30.515Z,99.90
2017-06-26T01:20:58.772Z,99.90
2017-06-26T01:23:27.092Z,99.90
2017-06-26T01:25:55.477Z,99.90
2017-06-26T01:28:23.936Z,99.90
2017-06-26T01:30:52.237Z,99.90
2017-06-26T01:33:20.603Z,99.90
2017-06-26T01:35:48.881Z,99.90
2017-06-26T01:38:17.152Z,99.90
2017-06-26T01:40:45.429Z,99.90
2017-06-26T01:43:13.685Z,99.90
2017-06-26T01:45:42.003Z,99.90
2017-06-26T01:48:10.276Z,99.90
2017-06-26T01:50:38.527Z,99.90
2017-06-26T01:53:06.805Z,99.90
2017-06-26T01:55:35.063Z,99.90
2017-06-26T01:58:03.358Z,99.90
2017-06-26T02:00:31.651Z,99.90
2017-06-26T02:03:00.029Z,99.90
2017-06-26T02:05:28.292Z,99.90
2017-06-26T02:07:56.549Z,99.90
2017-06-26T02:10:24.834Z,99.90
2017-06-26T02:12:53.142Z,99.90
2017-06-26T02:15:22.294Z,99.90
2017-06-26T02:17:50.571Z,99.90
2017-06-26T02:20:18.857Z,99.90
2017-06-26T02:22:47.224Z,99.90
2017-06-26T02:25:15.491Z,99.90
2017-06-26T02:27:43.871Z,99.90
2017-06-26T02:30:12.218Z,99.90
2017-06-26T02:32:40.551Z,99.90
2017-06-26T02:35:08.832Z,99.90
2017-06-26T02:37:37.090Z,99.90
2017-06-26T02:40:05.474Z,99.90
2017-06-26T02:42:33.734Z,99.90
2017-06-26T02:45:02.030Z,99.90
2017-06-26T02:47:30.298Z,99.90
2017-06-26T02:49:58.582Z,99.90
2017-06-26T02:52:26.851Z,99.90
2017-06-26T02:54:55.147Z,99.90
2017-06-26T02:57:23.400Z,99.90
2017-06-26T02:59:51.681Z,99.90
2017-06-26T03:02:20.440Z,99.90
2017-06-26T03:04:48.752Z,99.90
2017-06-26T03:07:17.018Z,99.90
2017-06-26T03:09:45.311Z,99.90
2017-06-26T03:12:13.703Z,99.90
2017-06-26T03:14:42.068Z,99.90
2017-06-26T03:17:10.439Z,99.90
2017-06-26T03:19:38.686Z,99.90
2017-06-26T03:22:06.970Z,99.90
2017-06-26T03:24:35.246Z,99.90
2017-06-26T03:27:03.547Z,99.90
2017-06-26T03:29:31.943Z,99.90
2017-06-26T03:32:00.202Z,99.90
2017-06-26T03:34:28.514Z,99.90
2017-06-26T03:36:56.755Z,99.90
2017-06-26T03:39:25.026Z,99.90
2017-06-26T03:41:53.301Z,99.90
2017-06-26T03:44:21.591Z,99.90
2017-06-26T03:46:49.970Z,99.90
2017-06-26T03:49:18.278Z,99.90
2017-06-26T03:51:46.532Z,99.90
2017-06-26T03:54:14.807Z,99.90
2017-06-26T03:56:43.186Z,99.90
2017-06-26T03:59:11.478Z,99.90
2017-06-26T04:01:39.951Z,99.90
2017-06-26T04:04:08.218Z,99.90
2017-06-26T04:06:36.598Z,99.90
2017-06-26T04:09:04.883Z,99.90
2017-06-26T04:11:33.144Z,99.90
2017-06-26T04:14:01.410Z,99.90
2017-06-26T04:16:29.702Z,99.90
2017-06-26T04:18:58.077Z,99.90
2017-06-26T04:21:26.349Z,99.90
2017-06-26T04:23:54.648Z,99.90
2017-06-26T04:26:22.915Z,99.90
2017-06-26T04:28:51.290Z,99.90
2017-06-26T04:31:19.552Z,99.90
2017-06-26T04:33:47.845Z,99.90
2017-06-26T04:36:16.114Z,99.90
2017-06-26T04:38:44.409Z,99.90
2017-06-26T04:41:12.787Z,99.90
2017-06-26T04:43:41.180Z,99.90
2017-06-26T04:46:09.563Z,99.90
2017-06-26T04:48:37.830Z,99.90
2017-06-26T04:51:06.118Z,99.90
2017-06-26T04:53:34.441Z,99.70
2017-06-26T04:56:02.717Z,99.90
2017-06-26T04:58:30.991Z,99.90
2017-06-26T05:01:00.321Z,99.80
2017-06-26T05:03:28.578Z,99.90
2017-06-26T05:05:56.887Z,99.90
2017-06-26T05:08:25.234Z,99.90
2017-06-26T05:10:53.543Z,99.90
2017-06-26T05:13:21.814Z,99.90
2017-06-26T05:15:50.103Z,99.90
2017-06-26T05:18:18.391Z,99.90
2017-06-26T05:20:46.831Z,99.90
2017-06-26T05:23:15.883Z,99.90
2017-06-26T05:25:44.199Z,99.90
2017-06-26T05:28:12.532Z,99.90
2017-06-26T05:30:40.799Z,99.90
2017-06-26T05:33:09.875Z,99.90
2017-06-26T05:35:38.231Z,99.90
2017-06-26T05:38:06.668Z,99.90
2017-06-26T05:40:35.835Z,99.90
2017-06-26T05:43:04.108Z,99.90
2017-06-26T05:45:32.382Z,99.90
2017-06-26T05:48:00.680Z,99.90
2017-06-26T05:50:28.943Z,99.90
2017-06-26T05:52:57.324Z,99.90
2017-06-26T05:55:25.584Z,99.90
2017-06-26T05:57:53.872Z,99.90
2017-06-26T06:00:22.147Z,99.90
2017-06-26T06:02:50.411Z,99.90
2017-06-26T06:05:19.526Z,99.90
2017-06-26T06:07:47.788Z,99.90
2017-06-26T06:10:16.179Z,99.90
2017-06-26T06:12:44.475Z,99.90
2017-06-26T06:15:13.632Z,99.90
2017-06-26T06:17:41.926Z,99.90
2017-06-26T06:20:10.183Z,99.90
2017-06-26T06:22:38.478Z,99.90
2017-06-26T06:25:06.748Z,99.90
2017-06-26T06:27:35.904Z,99.90
2017-06-26T06:30:04.193Z,99.90
2017-06-26T06:32:32.573Z,99.90
2017-06-26T06:35:00.825Z,99.90
2017-06-26T06:37:29.096Z,99.90
2017-06-26T06:39:57.399Z,99.90
2017-06-26T06:42:25.646Z,99.90
2017-06-26T06:44:53.919Z,99.90
2017-06-26T06:47:22.238Z,99.90
2017-06-26T06:49:50.515Z,99.90
2017-06-26T06:52:18.771Z,99.90
2017-06-26T06:54:47.160Z,99.90
2017-06-26T06:57:15.411Z,99.90
2017-06-26T06:59:43.671Z,99.90
2017-06-26T07:02:11.993Z,99.90
2017-06-26T07:04:40.243Z,99.90
2017-06-26T07:07:08.522Z,99.90
2017-06-26T07:09:36.784Z,99.90
2017-06-26T07:12:05.104Z,99.90
2017-06-26T07:14:33.363Z,99.90
2017-06-26T07:17:01.736Z,99.90
2017-06-26T07:19:30.026Z,99.90
2017-06-26T07:21:58.299Z,99.90
2017-06-26T07:24:26.561Z,99.90
2017-06-26T07:26:54.977Z,99.90
2017-06-26T07:29:23.253Z,99.90
2017-06-26T07:31:51.632Z,99.90
2017-06-26T07:34:19.904Z,99.90
2017-06-26T07:36:48.163Z,99.90
2017-06-26T07:39:16.554Z,99.90
2017-06-26T07:41:44.829Z,99.90
2017-06-26T07:44:13.069Z,99.90
2017-06-26T07:46:41.393Z,99.90
2017-06-26T07:49:09.651Z,99.90
2017-06-26T07:51:37.944Z,99.90
2017-06-26T07:54:06.213Z,99.90
2017-06-26T07:56:34.488Z,99.90
2017-06-26T07:59:02.834Z,99.90
2017-06-26T08:01:31.088Z,99.90
2017-06-26T08:03:59.491Z,99.90
2017-06-26T08:06:27.752Z,99.90
2017-06-26T08:08:56.046Z,99.90
2017-06-26T08:11:24.310Z,99.60
2017-06-26T08:13:52.592Z,99.90
2017-06-26T08:16:20.968Z,99.00
2017-06-26T08:18:49.217Z,96.70
2017-06-26T08:21:17.524Z,96.40
2017-06-26T08:23:45.784Z,96.90
2017-06-26T08:26:14.070Z,95.90
2017-06-26T08:28:42.345Z,96.00
2017-06-26T08:31:10.629Z,95.00
2017-06-26T08:33:38.898Z,95.60
2017-06-26T08:36:07.202Z,93.80
2017-06-26T08:38:35.474Z,94.90
2017-06-26T08:41:03.733Z,94.80
2017-06-26T08:43:32.029Z,95.20
2017-06-26T08:46:00.286Z,95.10
2017-06-26T08:48:28.555Z,93.40
2017-06-26T08:50:56.931Z,92.10
2017-06-26T08:53:25.214Z,91.70
2017-06-26T08:55:53.603Z,91.60
2017-06-26T08:58:21.839Z,92.60
2017-06-26T09:00:50.147Z,91.50
2017-06-26T09:03:18.423Z,91.80
2017-06-26T09:05:46.675Z,91.70
2017-06-26T09:08:15.086Z,89.20
2017-06-26T09:10:43.347Z,87.70
2017-06-26T09:13:11.612Z,86.80
2017-06-26T09:15:39.874Z,86.80
2017-06-26T09:18:08.145Z,82.30
2017-06-26T09:20:36.476Z,81.70
2017-06-26T09:23:04.754Z,82.50
2017-06-26T09:25:33.016Z,79.50
2017-06-26T09:28:01.306Z,78.80
2017-06-26T09:30:29.556Z,80.30
2017-06-26T09:32:57.850Z,78.70
2017-06-26T09:35:26.112Z,78.30
2017-06-26T09:37:54.384Z,75.00
2017-06-26T09:40:22.654Z,76.30
2017-06-26T09:42:50.949Z,72.80
2017-06-26T09:45:19.202Z,71.50
2017-06-26T09:47:47.484Z,73.90
2017-06-26T09:50:15.874Z,73.00
2017-06-26T09:52:44.158Z,74.00
2017-06-26T09:55:12.524Z,74.60
2017-06-26T09:57:40.794Z,74.60
2017-06-26T10:00:09.089Z,73.40
2017-06-26T10:02:37.382Z,73.50
2017-06-26T10:05:06.412Z,69.70
2017-06-26T10:07:34.710Z,69.60
2017-06-26T10:10:02.977Z,70.50
2017-06-26T10:12:31.228Z,69.40
2017-06-26T10:14:59.555Z,69.50
2017-06-26T10:17:27.820Z,67.80
2017-06-26T10:19:56.237Z,69.00
2017-06-26T10:22:24.494Z,68.30
2017-06-26T10:24:52.738Z,67.50
2017-06-26T10:27:21.065Z,67.00
2017-06-26T10:29:49.334Z,66.60
2017-06-26T10:32:17.719Z,65.40
2017-06-26T10:34:45.978Z,62.50
2017-06-26T10:37:14.258Z,63.10
2017-06-26T10:39:42.522Z,65.60
2017-06-26T10:42:10.814Z,63.10
2017-06-26T10:44:39.101Z,63.90
2017-06-26T10:47:07.387Z,62.20
2017-06-26T10:49:35.860Z,63.80
2017-06-26T10:52:04.104Z,61.90
2017-06-26T10:54:32.413Z,61.40
2017-06-26T10:57:00.664Z,63.20
2017-06-26T10:59:28.975Z,60.20
2017-06-26T11:01:57.359Z,61.60
2017-06-26T11:04:25.618Z,62.00
2017-06-26T11:06:53.917Z,63.40
2017-06-26T11:09:22.167Z,63.60
2017-06-26T11:11:50.439Z,63.80
2017-06-26T11:14:18.721Z,62.50
2017-06-26T11:16:47.014Z,62.40
2017-06-26T11:19:15.382Z,63.00
2017-06-26T11:21:43.663Z,63.20
2017-06-26T11:24:11.939Z,63.50
2017-06-26T11:26:40.306Z,65.10
2017-06-26T11:29:08.569Z,65.50
2017-06-26T11:31:36.829Z,64.50
2017-06-26T11:34:05.102Z,64.80
2017-06-26T11:36:33.428Z,64.70
2017-06-26T11:39:01.810Z,64.70
2017-06-26T11:41:30.174Z,66.10
2017-06-26T11:43:58.478Z,66.30
2017-06-26T11:46:26.734Z,65.90
2017-06-26T11:48:55.020Z,64.70
2017-06-26T11:51:23.410Z,64.20
2017-06-26T11:53:51.686Z,62.70
2017-06-26T11:56:20.053Z,61.70
2017-06-26T11:58:48.335Z,63.00
2017-06-26T12:01:16.715Z,63.90
2017-06-26T12:03:44.974Z,64.10
2017-06-26T12:06:13.243Z,64.60
2017-06-26T12:08:41.549Z,62.30
2017-06-26T12:11:09.808Z,61.50
2017-06-26T12:13:38.070Z,59.00
2017-06-26T12:16:06.352Z,53.90
2017-06-26T12:18:34.612Z,46.90
2017-06-26T12:21:02.907Z,47.00
2017-06-26T12:23:31.159Z,48.30
2017-06-26T12:25:59.578Z,50.80
2017-06-26T12:28:27.836Z,50.80
2017-06-26T12:30:56.123Z,53.20
2017-06-26T12:33:24.401Z,51.00
2017-06-26T12:35:52.670Z,46.90
2017-06-26T12:38:21.023Z,44.40
2017-06-26T12:40:49.356Z,41.30
2017-06-26T12:43:17.619Z,42.60
2017-06-26T12:45:45.896Z,46.00
2017-06-26T12:48:14.160Z,47.70
2017-06-26T12:50:42.532Z,50.30
2017-06-26T12:53:10.837Z,51.90
2017-06-26T12:55:39.090Z,53.80
2017-06-26T12:58:07.375Z,52.50
2017-06-26T13:00:35.646Z,53.10
2017-06-26T13:03:04.061Z,53.70
2017-06-26T13:05:32.418Z,50.60
2017-06-26T13:08:00.689Z,47.20
2017-06-26T13:10:28.996Z,47.70
2017-06-26T13:12:57.296Z,47.70
2017-06-26T13:15:26.554Z,46.60
2017-06-26T13:17:54.831Z,46.50
2017-06-26T13:20:23.880Z,41.90
2017-06-26T13:22:52.166Z,41.90
2017-06-26T13:25:21.201Z,38.30
2017-06-26T13:27:49.524Z,38.20
2017-06-26T13:30:17.775Z,39.60
2017-06-26T13:32:46.112Z,42.20
2017-06-26T13:35:14.444Z,45.30
2017-06-26T13:37:42.718Z,47.80
2017-06-26T13:40:11.005Z,48.60
2017-06-26T13:42:39.435Z,48.80
2017-06-26T13:45:08.466Z,51.20
2017-06-26T13:47:36.733Z,51.20
2017-06-26T13:50:05.027Z,51.50
2017-06-26T13:52:33.308Z,51.20
2017-06-26T13:55:01.634Z,51.40
2017-06-26T13:57:29.996Z,50.70
2017-06-26T13:59:58.294Z,51.10
2017-06-26T14:02:26.540Z,51.60
2017-06-26T14:04:54.792Z,50.70
2017-06-26T14:07:23.555Z,51.90
2017-06-26T14:09:52.623Z,53.00
2017-06-26T14:12:21.006Z,52.40
2017-06-26T14:14:49.307Z,50.30
2017-06-26T14:17:17.586Z,50.80
2017-06-26T14:19:45.850Z,49.30
2017-06-26T14:22:14.212Z,47.40
2017-06-26T14:24:42.570Z,46.10
2017-06-26T14:27:10.863Z,44.00
2017-06-26T14:29:39.164Z,42.80
2017-06-26T14:32:07.538Z,44.20
2017-06-26T14:34:35.833Z,46.70
2017-06-26T14:37:04.103Z,48.90
2017-06-26T14:39:32.381Z,50.30
2017-06-26T14:42:00.640Z,51.70
2017-06-26T14:44:28.928Z,53.30
2017-06-26T14:46:57.215Z,54.10
2017-06-26T14:49:25.550Z,54.10
2017-06-26T14:51:53.924Z,54.60
2017-06-26T14:54:22.278Z,54.30
2017-06-26T14:56:50.550Z,54.20
2017-06-26T14:59:18.799Z,53.30
2017-06-26T15:01:47.111Z,53.20
2017-06-26T15:04:15.373Z,52.30
2017-06-26T15:06:43.781Z,51.80
2017-06-26T15:09:12.051Z,52.40
2017-06-26T15:11:40.323Z,52.30
2017-06-26T15:14:08.717Z,52.70
2017-06-26T15:16:36.993Z,51.40
2017-06-26T15:19:05.393Z,50.80
2017-06-26T15:21:33.806Z,51.40
2017-06-26T15:24:02.068Z,52.10
2017-06-26T15:26:30.354Z,51.70
2017-06-26T15:28:58.660Z,52.20
2017-06-26T15:31:27.734Z,52.50
2017-06-26T15:33:56.019Z,52.50
2017-06-26T15:36:24.286Z,52.90
2017-06-26T15:38:52.561Z,54.30
2017-06-26T15:41:20.810Z,53.90
2017-06-26T15:43:49.107Z,53.90
2017-06-26T15:46:17.382Z,54.20
2017-06-26T15:48:45.674Z,53.50
2017-06-26T15:51:13.950Z,54.30
2017-06-26T15:53:42.213Z,52.80
2017-06-26T15:56:10.610Z,51.70
2017-06-26T15:58:38.872Z,51.50
2017-06-26T16:01:07.135Z,46.80
2017-06-26T16:03:35.429Z,45.00
2017-06-26T16:06:03.713Z,43.10
2017-06-26T16:08:32.107Z,43.80
2017-06-26T16:11:00.353Z,45.00
2017-06-26T16:13:28.647Z,44.90
2017-06-26T16:15:57.030Z,43.00
2017-06-26T16:18:25.337Z,43.80
2017-06-26T16:20:54.402Z,46.80
2017-06-26T16:23:22.654Z,46.10
2017-06-26T16:25:51.067Z,47.30
2017-06-26T16:28:19.332Z,47.30
2017-06-26T16:30:47.603Z,44.40
2017-06-26T16:33:15.989Z,45.10
2017-06-26T16:35:44.248Z,45.60
2017-06-26T16:38:12.641Z,44.80
2017-06-26T16:40:40.896Z,44.30
2017-06-26T16:43:09.164Z,44.40
2017-06-26T16:45:37.441Z,41.90
2017-06-26T16:48:05.688Z,41.40
2017-06-26T16:50:34.026Z,38.90
2017-06-26T16:53:02.281Z,38.70
2017-06-26T16:55:30.681Z,37.70
2017-06-26T16:57:58.922Z,36.00
2017-06-26T17:00:27.235Z,36.90
2017-06-26T17:02:55.525Z,35.70
2017-06-26T17:05:23.904Z,36.60
2017-06-26T17:07:52.202Z,38.50
2017-06-26T17:10:21.301Z,38.90
2017-06-26T17:12:51.388Z,41.20
2017-06-26T17:15:19.760Z,41.10
2017-06-26T17:17:48.024Z,42.60
2017-06-26T17:20:16.304Z,41.90
2017-06-26T17:22:44.609Z,43.20
2017-06-26T17:25:12.916Z,42.30
2017-06-26T17:27:41.956Z,43.20
2017-06-26T17:30:10.210Z,43.20
2017-06-26T17:32:38.485Z,42.70
2017-06-26T17:35:06.803Z,41.20
2017-06-26T17:37:35.178Z,42.00
2017-06-26T17:40:03.440Z,42.50
2017-06-26T17:42:32.519Z,43.30
2017-06-26T17:45:00.794Z,42.60
2017-06-26T17:47:30.037Z,41.30
2017-06-26T17:49:58.361Z,42.80
2017-06-26T17:52:26.656Z,41.80
2017-06-26T17:54:55.014Z,42.20
2017-06-26T17:57:23.275Z,41.60
2017-06-26T17:59:51.674Z,42.20
2017-06-26T18:02:19.944Z,42.70
2017-06-26T18:04:48.215Z,44.40
2017-06-26T18:07:16.502Z,44.80
2017-06-26T18:09:44.756Z,42.10
2017-06-26T18:12:13.146Z,42.10
2017-06-26T18:14:41.431Z,41.50
2017-06-26T18:17:10.463Z,40.70
2017-06-26T18:19:38.734Z,40.00
2017-06-26T18:22:07.003Z,40.50
2017-06-26T18:24:35.333Z,40.20
2017-06-26T18:27:03.602Z,43.20
2017-06-26T18:29:31.866Z,45.00
2017-06-26T18:32:00.145Z,46.50
2017-06-26T18:34:28.430Z,48.90
2017-06-26T18:36:56.734Z,50.60
2017-06-26T18:39:24.986Z,50.20
2017-06-26T18:41:53.256Z,50.00
2017-06-26T18:44:22.328Z,52.40
2017-06-26T18:46:50.699Z,51.60
2017-06-26T18:49:18.972Z,52.00
2017-06-26T18:51:47.257Z,50.80
2017-06-26T18:54:15.556Z,52.00
2017-06-26T18:56:43.922Z,51.50
2017-06-26T18:59:12.169Z,51.70
2017-06-26T19:01:40.471Z,51.20
2017-06-26T19:04:08.726Z,51.60
2017-06-26T19:06:37.036Z,52.40
2017-06-26T19:09:05.451Z,53.60
2017-06-26T19:11:34.466Z,52.70
2017-06-26T19:14:02.768Z,52.60
2017-06-26T19:16:31.784Z,52.70
2017-06-26T19:19:00.145Z,51.90
2017-06-26T19:21:28.419Z,52.60
2017-06-26T19:23:56.697Z,53.80
2017-06-26T19:26:25.086Z,53.30
2017-06-26T19:28:53.473Z,53.60
2017-06-26T19:31:21.827Z,54.30
2017-06-26T19:33:50.089Z,55.40
2017-06-26T19:36:18.384Z,54.40
2017-06-26T19:38:46.647Z,55.90
2017-06-26T19:41:15.131Z,56.20
2017-06-26T19:43:43.510Z,55.60
2017-06-26T19:46:11.789Z,58.70
2017-06-26T19:48:40.183Z,56.90
2017-06-26T19:51:08.436Z,58.40
2017-06-26T19:53:36.751Z,57.70
2017-06-26T19:56:05.271Z,57.60
2017-06-26T19:58:34.578Z,58.40
2017-06-26T20:01:02.971Z,58.60
2017-06-26T20:03:31.350Z,58.50
2017-06-26T20:05:59.729Z,58.80
2017-06-26T20:08:28.005Z,59.00
2017-06-26T20:10:56.394Z,59.70
2017-06-26T20:13:24.657Z,60.00
2017-06-26T20:15:52.931Z,60.00
2017-06-26T20:18:21.220Z,61.50
2017-06-26T20:20:49.494Z,60.10
2017-06-26T20:23:17.747Z,60.80
2017-06-26T20:25:46.049Z,64.00
2017-06-26T20:28:14.331Z,62.30
2017-06-26T20:30:42.698Z,61.70
2017-06-26T20:33:11.762Z,62.20
2017-06-26T20:35:40.052Z,63.00
2017-06-26T20:38:08.321Z,62.90
2017-06-26T20:40:36.700Z,64.00
2017-06-26T20:43:04.960Z,63.50
2017-06-26T20:45:33.227Z,63.40
2017-06-26T20:48:01.501Z,65.60
2017-06-26T20:50:29.794Z,63.90
2017-06-26T20:52:58.103Z,64.30
2017-06-26T20:55:26.383Z,64.30
2017-06-26T20:57:54.639Z,67.00
2017-06-26T21:00:22.924Z,64.60
2017-06-26T21:02:51.173Z,64.20
2017-06-26T21:05:19.596Z,64.50
2017-06-26T21:07:47.973Z,65.20
2017-06-26T21:10:16.332Z,66.20
2017-06-26T21:12:44.719Z,65.10
2017-06-26T21:15:13.011Z,65.30
2017-06-26T21:17:41.291Z,65.40
2017-06-26T21:20:10.310Z,65.80
2017-06-26T21:22:38.745Z,65.80
2017-06-26T21:25:07.025Z,66.70
2017-06-26T21:27:35.350Z,66.40
2017-06-26T21:30:03.612Z,66.10
2017-06-26T21:32:32.638Z,67.30
2017-06-26T21:35:00.961Z,67.20
2017-06-26T21:37:29.230Z,68.00
2017-06-26T21:39:57.612Z,69.40
2017-06-26T21:42:25.892Z,67.50
2017-06-26T21:44:54.165Z,69.20
2017-06-26T21:47:22.453Z,67.80
2017-06-26T21:49:50.700Z,67.70
2017-06-26T21:52:19.098Z,70.60
2017-06-26T21:54:47.386Z,69.10
2017-06-26T21:57:15.779Z,69.10
2017-06-26T21:59:44.128Z,72.30
2017-06-26T22:02:12.464Z,69.80
2017-06-26T22:04:40.740Z,70.10
2017-06-26T22:07:09.060Z,69.80
2017-06-26T22:09:37.441Z,69.90
2017-06-26T22:12:05.694Z,70.00
2017-06-26T22:14:34.078Z,70.50
2017-06-26T22:17:02.476Z,70.70
2017-06-26T22:19:30.758Z,70.80
2017-06-26T22:21:59.036Z,71.00
2017-06-26T22:24:27.509Z,70.60
2017-06-26T22:26:55.787Z,72.50
2017-06-26T22:29:24.040Z,78.00
2017-06-26T22:31:52.341Z,78.30
2017-06-26T22:34:20.625Z,78.80
2017-06-26T22:36:48.875Z,76.30
2017-06-26T22:39:17.268Z,72.60
2017-06-26T22:41:45.532Z,71.80
2017-06-26T22:44:13.800Z,71.60
2017-06-26T22:46:42.136Z,72.20
2017-06-26T22:49:11.186Z,77.00
2017-06-26T22:51:39.494Z,77.10
2017-06-26T22:54:08.522Z,74.90
2017-06-26T22:56:36.963Z,74.30
2017-06-26T22:59:05.314Z,72.60
2017-06-26T23:01:33.574Z,73.20
2017-06-26T23:04:01.900Z,76.00
2017-06-26T23:06:30.170Z,79.50
2017-06-26T23:08:58.587Z,77.50
2017-06-26T23:11:27.626Z,74.90
2017-06-26T23:13:55.890Z,74.90
2017-06-26T23:16:24.482Z,73.90
2017-06-26T23:18:52.769Z,75.80
2017-06-26T23:21:21.044Z,74.10
2017-06-26T23:23:49.354Z,74.30
2017-06-26T23:26:18.387Z,75.60
2017-06-26T23:28:46.687Z,75.50
2017-06-26T23:31:14.950Z,75.90
2017-06-26T23:33:43.347Z,76.00
2017-06-26T23:36:11.599Z,79.10
2017-06-26T23:38:39.895Z,76.80
2017-06-26T23:41:08.180Z,75.20
2017-06-26T23:43:36.455Z,75.60
2017-06-26T23:46:04.742Z,76.70
2017-06-26T23:48:33.003Z,77.80
2017-06-26T23:51:01.282Z,75.60
2017-06-26T23:53:29.558Z,76.30
2017-06-26T23:55:57.845Z,76.60
2017-06-26T23:58:26.139Z,82.40
